sensor_id;sensor_type;location;lat;lon;timestamp;P1;durP1;ratioP1;P2;durP2;ratioP2
76194;SDS011;64964;48.694;21.206;2024-02-04T00:00:25;23.50;;;10.23;;
76194;SDS011;64964;48.694;21.206;2024-02-04T00:02:51;18.23;;;9.93;;
76194;SDS011;64964;48.694;21.206;2024-02-04T00:05:16;18.52;;;8.45;;
76194;SDS011;64964;48.694;21.206;2024-02-04T00:07:43;15.77;;;8.53;;
76194;SDS011;64964;48.694;21.206;2024-02-04T00:10:08;18.05;;;8.82;;
76194;SDS011;64964;48.694;21.206;2024-02-04T00:12:34;21.00;;;9.57;;
76194;SDS011;64964;48.694;21.206;2024-02-04T00:14:59;18.97;;;9.40;;
76194;SDS011;64964;48.694;21.206;2024-02-04T00:17:25;16.17;;;8.63;;
76194;SDS011;64964;48.694;21.206;2024-02-04T00:19:55;17.80;;;9.27;;
76194;SDS011;64964;48.694;21.206;2024-02-04T00:22:21;19.40;;;9.27;;
76194;SDS011;64964;48.694;21.206;2024-02-04T00:24:46;20.17;;;10.37;;
76194;SDS011;64964;48.694;21.206;2024-02-04T00:27:12;22.67;;;11.27;;
76194;SDS011;64964;48.694;21.206;2024-02-04T00:29:37;20.90;;;10.97;;
76194;SDS011;64964;48.694;21.206;2024-02-04T00:32:02;25.37;;;10.93;;
76194;SDS011;64964;48.694;21.206;2024-02-04T00:34:28;23.17;;;10.80;;
76194;SDS011;64964;48.694;21.206;2024-02-04T00:36:53;24.67;;;11.17;;
76194;SDS011;64964;48.694;21.206;2024-02-04T00:39:18;26.43;;;11.67;;
76194;SDS011;64964;48.694;21.206;2024-02-04T00:41:44;26.73;;;12.27;;
76194;SDS011;64964;48.694;21.206;2024-02-04T00:44:09;23.47;;;11.57;;
76194;SDS011;64964;48.694;21.206;2024-02-04T00:46:35;22.17;;;11.40;;
76194;SDS011;64964;48.694;21.206;2024-02-04T00:49:00;20.60;;;11.43;;
76194;SDS011;64964;48.694;21.206;2024-02-04T00:51:25;20.00;;;11.27;;
76194;SDS011;64964;48.694;21.206;2024-02-04T00:53:51;20.80;;;10.63;;
76194;SDS011;64964;48.694;21.206;2024-02-04T00:56:17;21.63;;;10.10;;
76194;SDS011;64964;48.694;21.206;2024-02-04T00:58:43;20.83;;;10.40;;
76194;SDS011;64964;48.694;21.206;2024-02-04T01:01:08;22.27;;;11.07;;
76194;SDS011;64964;48.694;21.206;2024-02-04T01:03:34;21.83;;;10.47;;
76194;SDS011;64964;48.694;21.206;2024-02-04T01:05:59;19.43;;;9.70;;
76194;SDS011;64964;48.694;21.206;2024-02-04T01:08:25;22.42;;;10.45;;
76194;SDS011;64964;48.694;21.206;2024-02-04T01:10:50;17.57;;;9.43;;
76194;SDS011;64964;48.694;21.206;2024-02-04T01:13:18;17.13;;;7.90;;
76194;SDS011;64964;48.694;21.206;2024-02-04T01:15:43;16.27;;;8.53;;
76194;SDS011;64964;48.694;21.206;2024-02-04T01:18:09;14.87;;;7.90;;
76194;SDS011;64964;48.694;21.206;2024-02-04T01:20:34;13.67;;;8.03;;
76194;SDS011;64964;48.694;21.206;2024-02-04T01:23:00;14.95;;;7.82;;
76194;SDS011;64964;48.694;21.206;2024-02-04T01:25:25;14.20;;;7.80;;
76194;SDS011;64964;48.694;21.206;2024-02-04T01:27:50;13.87;;;7.50;;
76194;SDS011;64964;48.694;21.206;2024-02-04T01:30:16;12.87;;;7.97;;
76194;SDS011;64964;48.694;21.206;2024-02-04T01:32:41;14.95;;;7.80;;
76194;SDS011;64964;48.694;21.206;2024-02-04T01:35:07;13.20;;;7.67;;
76194;SDS011;64964;48.694;21.206;2024-02-04T01:37:32;12.57;;;7.05;;
76194;SDS011;64964;48.694;21.206;2024-02-04T01:39:58;11.97;;;7.23;;
76194;SDS011;64964;48.694;21.206;2024-02-04T01:42:23;13.47;;;6.83;;
76194;SDS011;64964;48.694;21.206;2024-02-04T01:44:49;18.50;;;7.97;;
76194;SDS011;64964;48.694;21.206;2024-02-04T01:47:14;17.57;;;8.73;;
76194;SDS011;64964;48.694;21.206;2024-02-04T01:49:40;13.25;;;6.88;;
76194;SDS011;64964;48.694;21.206;2024-02-04T01:52:05;13.50;;;7.37;;
76194;SDS011;64964;48.694;21.206;2024-02-04T01:54:32;13.45;;;7.60;;
76194;SDS011;64964;48.694;21.206;2024-02-04T01:56:59;12.77;;;7.13;;
76194;SDS011;64964;48.694;21.206;2024-02-04T01:59:27;14.23;;;7.50;;
76194;SDS011;64964;48.694;21.206;2024-02-04T02:02:01;12.33;;;7.50;;
76194;SDS011;64964;48.694;21.206;2024-02-04T02:04:27;15.73;;;7.35;;
76194;SDS011;64964;48.694;21.206;2024-02-04T02:06:54;13.10;;;7.63;;
76194;SDS011;64964;48.694;21.206;2024-02-04T02:09:19;15.63;;;7.97;;
76194;SDS011;64964;48.694;21.206;2024-02-04T02:11:54;13.13;;;7.63;;
76194;SDS011;64964;48.694;21.206;2024-02-04T02:14:22;14.10;;;7.38;;
76194;SDS011;64964;48.694;21.206;2024-02-04T02:16:51;12.20;;;7.18;;
76194;SDS011;64964;48.694;21.206;2024-02-04T02:25:01;11.80;;;7.00;;
76194;SDS011;64964;48.694;21.206;2024-02-04T02:27:29;14.00;;;7.70;;
76194;SDS011;64964;48.694;21.206;2024-02-04T02:29:55;16.00;;;8.63;;
76194;SDS011;64964;48.694;21.206;2024-02-04T02:32:20;14.68;;;8.07;;
76194;SDS011;64964;48.694;21.206;2024-02-04T02:34:46;13.23;;;7.43;;
76194;SDS011;64964;48.694;21.206;2024-02-04T02:37:29;11.80;;;6.90;;
76194;SDS011;64964;48.694;21.206;2024-02-04T02:40:01;13.32;;;7.70;;
76194;SDS011;64964;48.694;21.206;2024-02-04T02:42:38;12.77;;;7.05;;
76194;SDS011;64964;48.694;21.206;2024-02-04T02:45:07;14.25;;;8.00;;
76194;SDS011;64964;48.694;21.206;2024-02-04T02:47:33;12.57;;;7.33;;
76194;SDS011;64964;48.694;21.206;2024-02-04T02:50:00;13.50;;;7.63;;
76194;SDS011;64964;48.694;21.206;2024-02-04T02:52:25;14.65;;;8.13;;
76194;SDS011;64964;48.694;21.206;2024-02-04T02:54:51;11.70;;;7.20;;
76194;SDS011;64964;48.694;21.206;2024-02-04T02:57:16;10.77;;;6.67;;
76194;SDS011;64964;48.694;21.206;2024-02-04T02:59:42;11.88;;;6.45;;
76194;SDS011;64964;48.694;21.206;2024-02-04T03:02:07;11.70;;;6.53;;
76194;SDS011;64964;48.694;21.206;2024-02-04T03:04:33;11.70;;;6.30;;
76194;SDS011;64964;48.694;21.206;2024-02-04T03:06:58;13.37;;;7.80;;
76194;SDS011;64964;48.694;21.206;2024-02-04T03:09:23;11.97;;;6.87;;
76194;SDS011;64964;48.694;21.206;2024-02-04T03:11:49;14.47;;;6.87;;
76194;SDS011;64964;48.694;21.206;2024-02-04T03:14:15;11.00;;;6.33;;
76194;SDS011;64964;48.694;21.206;2024-02-04T03:16:43;11.40;;;6.47;;
76194;SDS011;64964;48.694;21.206;2024-02-04T03:19:11;12.95;;;6.65;;
76194;SDS011;64964;48.694;21.206;2024-02-04T03:21:37;10.97;;;6.10;;
76194;SDS011;64964;48.694;21.206;2024-02-04T03:24:02;10.55;;;6.28;;
76194;SDS011;64964;48.694;21.206;2024-02-04T03:26:28;12.43;;;6.80;;
76194;SDS011;64964;48.694;21.206;2024-02-04T03:28:53;11.87;;;6.00;;
76194;SDS011;64964;48.694;21.206;2024-02-04T03:31:22;9.37;;;5.93;;
76194;SDS011;64964;48.694;21.206;2024-02-04T03:33:48;10.73;;;5.55;;
76194;SDS011;64964;48.694;21.206;2024-02-04T03:36:18;11.18;;;6.20;;
76194;SDS011;64964;48.694;21.206;2024-02-04T03:38:45;10.13;;;6.00;;
76194;SDS011;64964;48.694;21.206;2024-02-04T03:41:10;11.15;;;5.95;;
76194;SDS011;64964;48.694;21.206;2024-02-04T03:43:36;13.67;;;6.23;;
76194;SDS011;64964;48.694;21.206;2024-02-04T03:46:01;10.70;;;6.38;;
76194;SDS011;64964;48.694;21.206;2024-02-04T03:48:27;11.07;;;6.07;;
76194;SDS011;64964;48.694;21.206;2024-02-04T03:50:52;10.90;;;6.57;;
76194;SDS011;64964;48.694;21.206;2024-02-04T03:53:17;12.00;;;6.53;;
76194;SDS011;64964;48.694;21.206;2024-02-04T03:55:44;12.15;;;6.70;;
76194;SDS011;64964;48.694;21.206;2024-02-04T03:58:09;13.90;;;7.27;;
76194;SDS011;64964;48.694;21.206;2024-02-04T04:00:34;14.43;;;7.95;;
76194;SDS011;64964;48.694;21.206;2024-02-04T04:03:00;13.10;;;8.07;;
76194;SDS011;64964;48.694;21.206;2024-02-04T04:05:25;15.43;;;8.20;;
76194;SDS011;64964;48.694;21.206;2024-02-04T04:07:51;14.40;;;7.90;;
76194;SDS011;64964;48.694;21.206;2024-02-04T04:10:17;14.73;;;6.80;;
76194;SDS011;64964;48.694;21.206;2024-02-04T04:12:42;11.53;;;6.60;;
76194;SDS011;64964;48.694;21.206;2024-02-04T04:15:07;13.23;;;7.40;;
76194;SDS011;64964;48.694;21.206;2024-02-04T04:17:33;12.82;;;6.75;;
76194;SDS011;64964;48.694;21.206;2024-02-04T04:19:58;14.87;;;7.47;;
76194;SDS011;64964;48.694;21.206;2024-02-04T04:22:24;12.63;;;7.63;;
76194;SDS011;64964;48.694;21.206;2024-02-04T04:24:49;12.90;;;7.07;;
76194;SDS011;64964;48.694;21.206;2024-02-04T04:27:14;13.80;;;7.67;;
76194;SDS011;64964;48.694;21.206;2024-02-04T04:29:40;13.50;;;7.93;;
76194;SDS011;64964;48.694;21.206;2024-02-04T04:32:05;14.00;;;7.20;;
76194;SDS011;64964;48.694;21.206;2024-02-04T04:34:31;15.43;;;7.38;;
76194;SDS011;64964;48.694;21.206;2024-02-04T04:36:56;13.57;;;7.63;;
76194;SDS011;64964;48.694;21.206;2024-02-04T04:39:21;13.23;;;7.43;;
76194;SDS011;64964;48.694;21.206;2024-02-04T04:41:47;14.57;;;8.20;;
76194;SDS011;64964;48.694;21.206;2024-02-04T04:44:12;13.27;;;7.40;;
76194;SDS011;64964;48.694;21.206;2024-02-04T04:46:40;13.03;;;7.00;;
76194;SDS011;64964;48.694;21.206;2024-02-04T04:49:05;12.65;;;7.22;;
76194;SDS011;64964;48.694;21.206;2024-02-04T04:51:31;13.27;;;6.45;;
76194;SDS011;64964;48.694;21.206;2024-02-04T04:53:57;11.27;;;6.23;;
76194;SDS011;64964;48.694;21.206;2024-02-04T04:56:22;13.70;;;7.03;;
76194;SDS011;64964;48.694;21.206;2024-02-04T04:58:47;11.17;;;6.00;;
76194;SDS011;64964;48.694;21.206;2024-02-04T05:01:14;10.87;;;6.30;;
76194;SDS011;64964;48.694;21.206;2024-02-04T05:03:40;9.85;;;5.85;;
76194;SDS011;64964;48.694;21.206;2024-02-04T05:06:05;10.53;;;5.83;;
76194;SDS011;64964;48.694;21.206;2024-02-04T05:08:31;13.17;;;6.83;;
76194;SDS011;64964;48.694;21.206;2024-02-04T05:10:56;11.30;;;6.50;;
76194;SDS011;64964;48.694;21.206;2024-02-04T05:13:21;9.87;;;5.93;;
76194;SDS011;64964;48.694;21.206;2024-02-04T05:15:47;11.45;;;6.20;;
76194;SDS011;64964;48.694;21.206;2024-02-04T05:18:12;13.17;;;6.23;;
76194;SDS011;64964;48.694;21.206;2024-02-04T05:20:37;14.83;;;7.53;;
76194;SDS011;64964;48.694;21.206;2024-02-04T05:23:03;12.63;;;7.37;;
76194;SDS011;64964;48.694;21.206;2024-02-04T05:25:28;12.00;;;7.23;;
76194;SDS011;64964;48.694;21.206;2024-02-04T05:27:53;12.40;;;6.85;;
76194;SDS011;64964;48.694;21.206;2024-02-04T05:30:19;10.30;;;5.97;;
76194;SDS011;64964;48.694;21.206;2024-02-04T05:32:44;12.30;;;6.10;;
76194;SDS011;64964;48.694;21.206;2024-02-04T05:35:11;11.93;;;6.17;;
76194;SDS011;64964;48.694;21.206;2024-02-04T05:37:36;12.10;;;7.05;;
76194;SDS011;64964;48.694;21.206;2024-02-04T05:40:02;12.00;;;7.20;;
76194;SDS011;64964;48.694;21.206;2024-02-04T05:42:29;13.13;;;7.22;;
76194;SDS011;64964;48.694;21.206;2024-02-04T05:44:56;11.83;;;7.40;;
76194;SDS011;64964;48.694;21.206;2024-02-04T05:47:22;15.65;;;8.82;;
76194;SDS011;64964;48.694;21.206;2024-02-04T05:49:47;13.83;;;8.70;;
76194;SDS011;64964;48.694;21.206;2024-02-04T05:52:14;12.77;;;7.30;;
76194;SDS011;64964;48.694;21.206;2024-02-04T05:54:39;12.52;;;6.63;;
76194;SDS011;64964;48.694;21.206;2024-02-04T05:57:05;11.00;;;6.33;;
76194;SDS011;64964;48.694;21.206;2024-02-04T05:59:31;10.82;;;6.30;;
76194;SDS011;64964;48.694;21.206;2024-02-04T06:01:56;12.30;;;6.20;;
76194;SDS011;64964;48.694;21.206;2024-02-04T06:04:21;11.77;;;6.33;;
76194;SDS011;64964;48.694;21.206;2024-02-04T06:06:47;13.93;;;6.53;;
76194;SDS011;64964;48.694;21.206;2024-02-04T06:09:12;15.70;;;6.80;;
76194;SDS011;64964;48.694;21.206;2024-02-04T06:11:38;11.33;;;6.53;;
76194;SDS011;64964;48.694;21.206;2024-02-04T06:14:04;11.35;;;6.70;;
76194;SDS011;64964;48.694;21.206;2024-02-04T06:16:29;10.33;;;6.10;;
76194;SDS011;64964;48.694;21.206;2024-02-04T06:18:54;12.70;;;6.37;;
76194;SDS011;64964;48.694;21.206;2024-02-04T06:21:22;11.75;;;5.90;;
76194;SDS011;64964;48.694;21.206;2024-02-04T06:23:47;12.23;;;6.47;;
76194;SDS011;64964;48.694;21.206;2024-02-04T06:26:13;10.63;;;5.93;;
76194;SDS011;64964;48.694;21.206;2024-02-04T06:28:38;11.90;;;6.30;;
76194;SDS011;64964;48.694;21.206;2024-02-04T06:31:03;11.30;;;6.30;;
76194;SDS011;64964;48.694;21.206;2024-02-04T06:33:29;13.30;;;6.60;;
76194;SDS011;64964;48.694;21.206;2024-02-04T06:35:54;10.57;;;6.30;;
76194;SDS011;64964;48.694;21.206;2024-02-04T06:38:20;12.97;;;6.57;;
76194;SDS011;64964;48.694;21.206;2024-02-04T06:40:45;15.68;;;7.22;;
76194;SDS011;64964;48.694;21.206;2024-02-04T06:43:10;14.40;;;7.43;;
76194;SDS011;64964;48.694;21.206;2024-02-04T06:45:36;15.10;;;7.83;;
76194;SDS011;64964;48.694;21.206;2024-02-04T06:48:01;12.83;;;7.80;;
76194;SDS011;64964;48.694;21.206;2024-02-04T06:50:27;19.67;;;8.18;;
76194;SDS011;64964;48.694;21.206;2024-02-04T06:52:53;15.70;;;8.27;;
76194;SDS011;64964;48.694;21.206;2024-02-04T06:55:18;15.77;;;8.60;;
76194;SDS011;64964;48.694;21.206;2024-02-04T06:57:44;17.50;;;8.47;;
76194;SDS011;64964;48.694;21.206;2024-02-04T07:00:09;17.27;;;9.00;;
76194;SDS011;64964;48.694;21.206;2024-02-04T07:02:36;21.50;;;8.70;;
76194;SDS011;64964;48.694;21.206;2024-02-04T07:05:02;25.97;;;14.20;;
76194;SDS011;64964;48.694;21.206;2024-02-04T07:07:27;17.05;;;10.00;;
76194;SDS011;64964;48.694;21.206;2024-02-04T07:09:53;18.90;;;10.87;;
76194;SDS011;64964;48.694;21.206;2024-02-04T07:12:18;24.27;;;12.83;;
76194;SDS011;64964;48.694;21.206;2024-02-04T07:14:44;23.42;;;12.48;;
76194;SDS011;64964;48.694;21.206;2024-02-04T07:17:09;20.70;;;10.53;;
76194;SDS011;64964;48.694;21.206;2024-02-04T07:19:36;18.98;;;9.80;;
76194;SDS011;64964;48.694;21.206;2024-02-04T07:22:02;19.57;;;10.40;;
76194;SDS011;64964;48.694;21.206;2024-02-04T07:24:27;48.73;;;23.27;;
76194;SDS011;64964;48.694;21.206;2024-02-04T07:26:53;57.50;;;27.02;;
76194;SDS011;64964;48.694;21.206;2024-02-04T07:29:18;26.70;;;11.20;;
76194;SDS011;64964;48.694;21.206;2024-02-04T07:31:44;21.27;;;10.50;;
76194;SDS011;64964;48.694;21.206;2024-02-04T07:34:09;23.83;;;12.47;;
76194;SDS011;64964;48.694;21.206;2024-02-04T07:36:34;22.17;;;12.47;;
76194;SDS011;64964;48.694;21.206;2024-02-04T07:39:00;20.43;;;10.57;;
76194;SDS011;64964;48.694;21.206;2024-02-04T07:41:27;21.90;;;11.52;;
76194;SDS011;64964;48.694;21.206;2024-02-04T07:43:52;21.97;;;11.57;;
76194;SDS011;64964;48.694;21.206;2024-02-04T07:46:18;34.17;;;15.20;;
76194;SDS011;64964;48.694;21.206;2024-02-04T07:48:43;47.83;;;23.40;;
76194;SDS011;64964;48.694;21.206;2024-02-04T07:51:09;29.90;;;15.33;;
76194;SDS011;64964;48.694;21.206;2024-02-04T07:53:34;24.90;;;12.38;;
76194;SDS011;64964;48.694;21.206;2024-02-04T07:56:01;24.73;;;11.63;;
76194;SDS011;64964;48.694;21.206;2024-02-04T07:58:28;27.23;;;12.60;;
76194;SDS011;64964;48.694;21.206;2024-02-04T08:00:54;25.02;;;11.93;;
76194;SDS011;64964;48.694;21.206;2024-02-04T08:03:19;39.67;;;22.87;;
76194;SDS011;64964;48.694;21.206;2024-02-04T08:05:45;26.03;;;13.10;;
76194;SDS011;64964;48.694;21.206;2024-02-04T08:08:10;26.20;;;14.33;;
76194;SDS011;64964;48.694;21.206;2024-02-04T08:10:35;23.35;;;11.77;;
76194;SDS011;64964;48.694;21.206;2024-02-04T08:13:01;28.77;;;12.20;;
76194;SDS011;64964;48.694;21.206;2024-02-04T08:15:26;23.55;;;11.77;;
76194;SDS011;64964;48.694;21.206;2024-02-04T08:17:52;23.47;;;12.00;;
76194;SDS011;64964;48.694;21.206;2024-02-04T08:20:17;23.10;;;10.37;;
76194;SDS011;64964;48.694;21.206;2024-02-04T08:22:43;21.58;;;10.55;;
76194;SDS011;64964;48.694;21.206;2024-02-04T08:25:09;20.10;;;9.90;;
76194;SDS011;64964;48.694;21.206;2024-02-04T08:27:36;18.45;;;9.13;;
76194;SDS011;64964;48.694;21.206;2024-02-04T08:30:02;18.00;;;9.18;;
76194;SDS011;64964;48.694;21.206;2024-02-04T08:32:28;21.67;;;9.90;;
76194;SDS011;64964;48.694;21.206;2024-02-04T08:34:53;19.27;;;9.90;;
76194;SDS011;64964;48.694;21.206;2024-02-04T08:37:18;18.43;;;9.40;;
76194;SDS011;64964;48.694;21.206;2024-02-04T08:39:45;23.45;;;10.45;;
76194;SDS011;64964;48.694;21.206;2024-02-04T08:42:10;17.23;;;9.23;;
76194;SDS011;64964;48.694;21.206;2024-02-04T08:44:35;18.87;;;9.73;;
76194;SDS011;64964;48.694;21.206;2024-02-04T08:47:01;20.93;;;10.73;;
76194;SDS011;64964;48.694;21.206;2024-02-04T08:49:28;20.27;;;9.95;;
76194;SDS011;64964;48.694;21.206;2024-02-04T08:51:54;19.63;;;10.55;;
76194;SDS011;64964;48.694;21.206;2024-02-04T08:54:19;21.93;;;11.20;;
76194;SDS011;64964;48.694;21.206;2024-02-04T08:56:45;22.63;;;11.13;;
76194;SDS011;64964;48.694;21.206;2024-02-04T08:59:10;22.60;;;11.20;;
76194;SDS011;64964;48.694;21.206;2024-02-04T09:01:35;25.43;;;11.63;;
76194;SDS011;64964;48.694;21.206;2024-02-04T09:04:01;23.27;;;12.55;;
76194;SDS011;64964;48.694;21.206;2024-02-04T09:06:26;27.43;;;13.17;;
76194;SDS011;64964;48.694;21.206;2024-02-04T09:08:51;27.63;;;12.77;;
76194;SDS011;64964;48.694;21.206;2024-02-04T09:11:17;28.00;;;14.47;;
76194;SDS011;64964;48.694;21.206;2024-02-04T09:13:47;26.10;;;13.48;;
76194;SDS011;64964;48.694;21.206;2024-02-04T09:16:12;23.98;;;12.52;;
76194;SDS011;64964;48.694;21.206;2024-02-04T09:18:38;26.50;;;12.60;;
76194;SDS011;64964;48.694;21.206;2024-02-04T09:21:03;26.10;;;13.57;;
76194;SDS011;64964;48.694;21.206;2024-02-04T09:23:29;26.65;;;13.05;;
76194;SDS011;64964;48.694;21.206;2024-02-04T09:25:54;21.17;;;12.07;;
76194;SDS011;64964;48.694;21.206;2024-02-04T09:28:19;22.80;;;11.07;;
76194;SDS011;64964;48.694;21.206;2024-02-04T09:30:45;24.07;;;12.47;;
76194;SDS011;64964;48.694;21.206;2024-02-04T09:33:11;28.33;;;13.70;;
76194;SDS011;64964;48.694;21.206;2024-02-04T09:35:36;23.48;;;12.73;;
76194;SDS011;64964;48.694;21.206;2024-02-04T09:38:02;19.77;;;11.00;;
76194;SDS011;64964;48.694;21.206;2024-02-04T09:40:27;24.40;;;12.67;;
76194;SDS011;64964;48.694;21.206;2024-02-04T09:42:54;24.58;;;12.43;;
76194;SDS011;64964;48.694;21.206;2024-02-04T09:45:21;24.13;;;12.10;;
76194;SDS011;64964;48.694;21.206;2024-02-04T09:47:46;20.30;;;10.65;;
76194;SDS011;64964;48.694;21.206;2024-02-04T09:50:14;22.87;;;10.77;;
76194;SDS011;64964;48.694;21.206;2024-02-04T09:52:40;18.38;;;8.95;;
76194;SDS011;64964;48.694;21.206;2024-02-04T09:55:10;29.33;;;15.60;;
76194;SDS011;64964;48.694;21.206;2024-02-04T09:57:38;14.88;;;7.85;;
76194;SDS011;64964;48.694;21.206;2024-02-04T10:00:03;14.77;;;8.67;;
76194;SDS011;64964;48.694;21.206;2024-02-04T10:02:33;16.25;;;9.13;;
76194;SDS011;64964;48.694;21.206;2024-02-04T10:04:59;13.53;;;6.20;;
76194;SDS011;64964;48.694;21.206;2024-02-04T10:07:24;9.30;;;5.65;;
76194;SDS011;64964;48.694;21.206;2024-02-04T10:09:50;9.07;;;5.47;;
76194;SDS011;64964;48.694;21.206;2024-02-04T10:12:16;10.98;;;5.80;;
76194;SDS011;64964;48.694;21.206;2024-02-04T10:14:42;8.90;;;4.50;;
76194;SDS011;64964;48.694;21.206;2024-02-04T10:17:07;7.43;;;4.60;;
76194;SDS011;64964;48.694;21.206;2024-02-04T10:19:33;7.77;;;4.67;;
76194;SDS011;64964;48.694;21.206;2024-02-04T10:22:02;6.40;;;4.00;;
76194;SDS011;64964;48.694;21.206;2024-02-04T10:24:29;7.20;;;3.80;;
76194;SDS011;64964;48.694;21.206;2024-02-04T10:26:55;4.60;;;2.93;;
76194;SDS011;64964;48.694;21.206;2024-02-04T10:29:21;6.10;;;3.15;;
76194;SDS011;64964;48.694;21.206;2024-02-04T10:31:47;4.25;;;2.58;;
76194;SDS011;64964;48.694;21.206;2024-02-04T10:34:13;4.10;;;2.40;;
76194;SDS011;64964;48.694;21.206;2024-02-04T10:36:38;3.58;;;2.50;;
76194;SDS011;64964;48.694;21.206;2024-02-04T10:39:04;3.90;;;2.90;;
76194;SDS011;64964;48.694;21.206;2024-02-04T10:41:29;4.10;;;2.63;;
76194;SDS011;64964;48.694;21.206;2024-02-04T10:43:56;6.10;;;2.88;;
76194;SDS011;64964;48.694;21.206;2024-02-04T10:46:23;4.60;;;3.08;;
76194;SDS011;64964;48.694;21.206;2024-02-04T10:48:57;4.38;;;2.65;;
76194;SDS011;64964;48.694;21.206;2024-02-04T10:51:25;3.97;;;2.95;;
76194;SDS011;64964;48.694;21.206;2024-02-04T10:53:51;3.13;;;2.70;;
76194;SDS011;64964;48.694;21.206;2024-02-04T10:56:41;4.50;;;2.88;;
76194;SDS011;64964;48.694;21.206;2024-02-04T10:59:08;4.03;;;2.88;;
76194;SDS011;64964;48.694;21.206;2024-02-04T11:01:37;3.67;;;2.80;;
76194;SDS011;64964;48.694;21.206;2024-02-04T11:04:06;4.15;;;3.03;;
76194;SDS011;64964;48.694;21.206;2024-02-04T11:06:36;9.10;;;4.40;;
76194;SDS011;64964;48.694;21.206;2024-02-04T11:09:03;4.75;;;3.38;;
76194;SDS011;64964;48.694;21.206;2024-02-04T11:11:30;5.35;;;3.80;;
76194;SDS011;64964;48.694;21.206;2024-02-04T11:13:57;9.27;;;4.40;;
76194;SDS011;64964;48.694;21.206;2024-02-04T11:27:43;3.88;;;2.85;;
76194;SDS011;64964;48.694;21.206;2024-02-04T11:30:10;4.53;;;3.20;;
76194;SDS011;64964;48.694;21.206;2024-02-04T11:32:36;4.80;;;3.20;;
76194;SDS011;64964;48.694;21.206;2024-02-04T11:35:01;4.83;;;3.17;;
76194;SDS011;64964;48.694;21.206;2024-02-04T11:37:28;39.22;;;20.67;;
76194;SDS011;64964;48.694;21.206;2024-02-04T11:39:54;6.32;;;3.92;;
76194;SDS011;64964;48.694;21.206;2024-02-04T11:42:22;4.30;;;2.90;;
76194;SDS011;64964;48.694;21.206;2024-02-04T11:44:48;3.20;;;2.45;;
76194;SDS011;64964;48.694;21.206;2024-02-04T11:47:24;4.90;;;3.35;;
76194;SDS011;64964;48.694;21.206;2024-02-04T11:49:53;19.90;;;11.57;;
76194;SDS011;64964;48.694;21.206;2024-02-04T11:52:20;14.13;;;11.82;;
76194;SDS011;64964;48.694;21.206;2024-02-04T11:54:45;17.90;;;14.73;;
76194;SDS011;64964;48.694;21.206;2024-02-04T11:57:11;5.40;;;4.07;;
76194;SDS011;64964;48.694;21.206;2024-02-04T11:59:36;3.87;;;2.63;;
76194;SDS011;64964;48.694;21.206;2024-02-04T12:02:05;5.97;;;3.55;;
76194;SDS011;64964;48.694;21.206;2024-02-04T12:04:31;9.50;;;4.83;;
76194;SDS011;64964;48.694;21.206;2024-02-04T12:06:57;12.80;;;6.53;;
76194;SDS011;64964;48.694;21.206;2024-02-04T12:09:23;12.90;;;6.30;;
76194;SDS011;64964;48.694;21.206;2024-02-04T12:11:49;9.88;;;6.10;;
76194;SDS011;64964;48.694;21.206;2024-02-04T12:14:16;13.00;;;6.03;;
76194;SDS011;64964;48.694;21.206;2024-02-04T12:16:43;12.10;;;7.20;;
76194;SDS011;64964;48.694;21.206;2024-02-04T12:19:09;10.70;;;6.50;;
76194;SDS011;64964;48.694;21.206;2024-02-04T12:21:35;12.87;;;8.00;;
76194;SDS011;64964;48.694;21.206;2024-02-04T12:24:01;10.63;;;6.55;;
76194;SDS011;64964;48.694;21.206;2024-02-04T12:26:27;11.48;;;6.32;;
76194;SDS011;64964;48.694;21.206;2024-02-04T12:28:53;10.47;;;6.27;;
76194;SDS011;64964;48.694;21.206;2024-02-04T12:31:20;11.25;;;6.75;;
76194;SDS011;64964;48.694;21.206;2024-02-04T12:33:52;11.27;;;5.82;;
76194;SDS011;64964;48.694;21.206;2024-02-04T12:36:26;10.82;;;5.70;;
76194;SDS011;64964;48.694;21.206;2024-02-04T12:38:58;18.33;;;14.07;;
76194;SDS011;64964;48.694;21.206;2024-02-04T12:41:26;8.40;;;4.97;;
76194;SDS011;64964;48.694;21.206;2024-02-04T12:43:52;7.93;;;4.80;;
76194;SDS011;64964;48.694;21.206;2024-02-04T12:46:19;7.40;;;4.30;;
76194;SDS011;64964;48.694;21.206;2024-02-04T12:48:45;7.18;;;4.47;;
76194;SDS011;64964;48.694;21.206;2024-02-04T12:51:29;7.78;;;4.88;;
76194;SDS011;64964;48.694;21.206;2024-02-04T12:54:29;9.67;;;5.17;;
76194;SDS011;64964;48.694;21.206;2024-02-04T12:59:28;8.70;;;5.00;;
76194;SDS011;64964;48.694;21.206;2024-02-04T13:01:59;8.88;;;5.45;;
76194;SDS011;64964;48.694;21.206;2024-02-04T13:04:26;10.63;;;5.45;;
76194;SDS011;64964;48.694;21.206;2024-02-04T13:06:52;15.63;;;10.60;;
76194;SDS011;64964;48.694;21.206;2024-02-04T13:09:18;17.65;;;14.43;;
76194;SDS011;64964;48.694;21.206;2024-02-04T13:11:43;10.15;;;6.38;;
76194;SDS011;64964;48.694;21.206;2024-02-04T13:14:09;8.07;;;4.77;;
76194;SDS011;64964;48.694;21.206;2024-02-04T13:16:35;9.95;;;4.70;;
76194;SDS011;64964;48.694;21.206;2024-02-04T13:19:03;8.57;;;5.03;;
76194;SDS011;64964;48.694;21.206;2024-02-04T13:21:29;7.40;;;4.32;;
76194;SDS011;64964;48.694;21.206;2024-02-04T13:23:55;9.00;;;5.00;;
76194;SDS011;64964;48.694;21.206;2024-02-04T13:26:21;20.77;;;6.07;;
76194;SDS011;64964;48.694;21.206;2024-02-04T13:28:46;11.43;;;5.30;;
76194;SDS011;64964;48.694;21.206;2024-02-04T13:31:12;9.20;;;5.33;;
76194;SDS011;64964;48.694;21.206;2024-02-04T13:33:38;9.20;;;5.40;;
76194;SDS011;64964;48.694;21.206;2024-02-04T13:36:05;10.40;;;6.68;;
76194;SDS011;64964;48.694;21.206;2024-02-04T13:38:31;8.70;;;4.15;;
76194;SDS011;64964;48.694;21.206;2024-02-04T13:40:57;10.67;;;5.60;;
76194;SDS011;64964;48.694;21.206;2024-02-04T13:43:22;9.30;;;5.50;;
76194;SDS011;64964;48.694;21.206;2024-02-04T13:45:47;8.87;;;5.13;;
76194;SDS011;64964;48.694;21.206;2024-02-04T13:48:13;8.43;;;5.10;;
76194;SDS011;64964;48.694;21.206;2024-02-04T13:50:38;9.30;;;5.30;;
76194;SDS011;64964;48.694;21.206;2024-02-04T13:53:04;11.63;;;5.43;;
76194;SDS011;64964;48.694;21.206;2024-02-04T13:55:29;9.40;;;5.43;;
76194;SDS011;64964;48.694;21.206;2024-02-04T13:57:54;10.33;;;5.60;;
76194;SDS011;64964;48.694;21.206;2024-02-04T14:00:20;11.25;;;4.68;;
76194;SDS011;64964;48.694;21.206;2024-02-04T14:02:45;9.57;;;5.30;;
76194;SDS011;64964;48.694;21.206;2024-02-04T14:05:11;7.60;;;4.70;;
76194;SDS011;64964;48.694;21.206;2024-02-04T14:07:36;9.10;;;4.80;;
76194;SDS011;64964;48.694;21.206;2024-02-04T14:10:02;11.20;;;4.80;;
76194;SDS011;64964;48.694;21.206;2024-02-04T14:12:28;8.68;;;5.15;;
76194;SDS011;64964;48.694;21.206;2024-02-04T14:14:54;9.63;;;5.23;;
76194;SDS011;64964;48.694;21.206;2024-02-04T14:17:19;8.57;;;4.85;;
76194;SDS011;64964;48.694;21.206;2024-02-04T14:19:45;8.33;;;4.70;;
76194;SDS011;64964;48.694;21.206;2024-02-04T14:22:13;9.60;;;4.63;;
76194;SDS011;64964;48.694;21.206;2024-02-04T14:24:39;8.00;;;4.37;;
76194;SDS011;64964;48.694;21.206;2024-02-04T14:27:04;7.53;;;4.10;;
76194;SDS011;64964;48.694;21.206;2024-02-04T14:29:30;11.57;;;7.67;;
76194;SDS011;64964;48.694;21.206;2024-02-04T14:31:55;11.30;;;6.47;;
76194;SDS011;64964;48.694;21.206;2024-02-04T14:34:23;10.05;;;5.30;;